sensor_id;sensor_type;location;lat;lon;timestamp;pressure;altitude;pressure_sealevel;temperature
82411;BMP180;74662;60.040;30.218;2023-12-07T00:00:27;102167.00;;;-2.20
82411;BMP180;74662;60.040;30.218;2023-12-07T00:01:28;102247.00;;;-2.20
82411;BMP180;74662;60.040;30.218;2023-12-07T00:02:28;102214.00;;;-2.20
82411;BMP180;74662;60.040;30.218;2023-12-07T00:03:29;102249.00;;;-2.20
82411;BMP180;74662;60.040;30.218;2023-12-07T00:04:29;102244.00;;;-2.20
82411;BMP180;74662;60.040;30.218;2023-12-07T00:05:30;102179.00;;;-2.20
82411;BMP180;74662;60.040;30.218;2023-12-07T00:06:30;102246.00;;;-2.20
82411;BMP180;74662;60.040;30.218;2023-12-07T00:07:31;102254.00;;;-2.20
82411;BMP180;74662;60.040;30.218;2023-12-07T00:08:31;102214.00;;;-2.20
82411;BMP180;74662;60.040;30.218;2023-12-07T00:09:32;102235.00;;;-2.20
82411;BMP180;74662;60.040;30.218;2023-12-07T00:10:32;102168.00;;;-2.30
82411;BMP180;74662;60.040;30.218;2023-12-07T00:11:33;102237.00;;;-2.30
82411;BMP180;74662;60.040;30.218;2023-12-07T00:12:33;102170.00;;;-2.30
82411;BMP180;74662;60.040;30.218;2023-12-07T00:13:34;102221.00;;;-2.30
82411;BMP180;74662;60.040;30.218;2023-12-07T00:14:34;102213.00;;;-2.30
82411;BMP180;74662;60.040;30.218;2023-12-07T00:15:35;102066.00;;;-2.30
82411;BMP180;74662;60.040;30.218;2023-12-07T00:16:35;102262.00;;;-2.30
82411;BMP180;74662;60.040;30.218;2023-12-07T00:17:36;102207.00;;;-2.30
82411;BMP180;74662;60.040;30.218;2023-12-07T00:18:37;102208.00;;;-2.30
82411;BMP180;74662;60.040;30.218;2023-12-07T00:19:37;102256.00;;;-2.30
82411;BMP180;74662;60.040;30.218;2023-12-07T00:20:38;102182.00;;;-2.30
82411;BMP180;74662;60.040;30.218;2023-12-07T00:21:38;102184.00;;;-2.30
82411;BMP180;74662;60.040;30.218;2023-12-07T00:22:39;102230.00;;;-2.30
82411;BMP180;74662;60.040;30.218;2023-12-07T00:23:39;102241.00;;;-2.30
82411;BMP180;74662;60.040;30.218;2023-12-07T00:24:40;102240.00;;;-2.30
82411;BMP180;74662;60.040;30.218;2023-12-07T00:25:40;102249.00;;;-2.30
82411;BMP180;74662;60.040;30.218;2023-12-07T00:26:41;102264.00;;;-2.30
82411;BMP180;74662;60.040;30.218;2023-12-07T00:27:41;102200.00;;;-2.30
82411;BMP180;74662;60.040;30.218;2023-12-07T00:28:42;102254.00;;;-2.30
82411;BMP180;74662;60.040;30.218;2023-12-07T00:29:42;102246.00;;;-2.30
82411;BMP180;74662;60.040;30.218;2023-12-07T00:30:43;102201.00;;;-2.30
82411;BMP180;74662;60.040;30.218;2023-12-07T00:31:43;102210.00;;;-2.30
82411;BMP180;74662;60.040;30.218;2023-12-07T00:32:44;102261.00;;;-2.30
82411;BMP180;74662;60.040;30.218;2023-12-07T00:33:44;102218.00;;;-2.30
82411;BMP180;74662;60.040;30.218;2023-12-07T00:34:45;102264.00;;;-2.30
82411;BMP180;74662;60.040;30.218;2023-12-07T00:35:46;102203.00;;;-2.30
82411;BMP180;74662;60.040;30.218;2023-12-07T00:36:46;102246.00;;;-2.30
82411;BMP180;74662;60.040;30.218;2023-12-07T00:37:47;102259.00;;;-2.30
82411;BMP180;74662;60.040;30.218;2023-12-07T00:38:47;102264.00;;;-2.30
82411;BMP180;74662;60.040;30.218;2023-12-07T00:39:48;102262.00;;;-2.30
82411;BMP180;74662;60.040;30.218;2023-12-07T00:40:49;102229.00;;;-2.30
82411;BMP180;74662;60.040;30.218;2023-12-07T00:41:49;102258.00;;;-2.30
82411;BMP180;74662;60.040;30.218;2023-12-07T00:42:50;102213.00;;;-2.30
82411;BMP180;74662;60.040;30.218;2023-12-07T00:43:50;102265.00;;;-2.30
82411;BMP180;74662;60.040;30.218;2023-12-07T00:44:51;102264.00;;;-2.30
82411;BMP180;74662;60.040;30.218;2023-12-07T00:45:52;102272.00;;;-2.30
82411;BMP180;74662;60.040;30.218;2023-12-07T00:46:52;102272.00;;;-2.30
82411;BMP180;74662;60.040;30.218;2023-12-07T00:47:53;102238.00;;;-2.30
82411;BMP180;74662;60.040;30.218;2023-12-07T00:48:53;102273.00;;;-2.30
82411;BMP180;74662;60.040;30.218;2023-12-07T00:49:54;102270.00;;;-2.30
82411;BMP180;74662;60.040;30.218;2023-12-07T00:50:54;102263.00;;;-2.30
82411;BMP180;74662;60.040;30.218;2023-12-07T00:51:55;102252.00;;;-2.30
82411;BMP180;74662;60.040;30.218;2023-12-07T00:52:55;102281.00;;;-2.30
82411;BMP180;74662;60.040;30.218;2023-12-07T00:53:56;102276.00;;;-2.30
82411;BMP180;74662;60.040;30.218;2023-12-07T00:54:56;102276.00;;;-2.30
82411;BMP180;74662;60.040;30.218;2023-12-07T00:55:57;102282.00;;;-2.30
82411;BMP180;74662;60.040;30.218;2023-12-07T00:56:58;102196.00;;;-2.40
82411;BMP180;74662;60.040;30.218;2023-12-07T00:57:58;102271.00;;;-2.30
82411;BMP180;74662;60.040;30.218;2023-12-07T00:59:01;102192.00;;;-2.30
82411;BMP180;74662;60.040;30.218;2023-12-07T01:00:02;102201.00;;;-2.40
82411;BMP180;74662;60.040;30.218;2023-12-07T01:01:04;102206.00;;;-2.30
82411;BMP180;74662;60.040;30.218;2023-12-07T01:02:05;102264.00;;;-2.40
82411;BMP180;74662;60.040;30.218;2023-12-07T01:03:06;102273.00;;;-2.40
82411;BMP180;74662;60.040;30.218;2023-12-07T01:04:06;102201.00;;;-2.40
82411;BMP180;74662;60.040;30.218;2023-12-07T01:05:07;102267.00;;;-2.40
82411;BMP180;74662;60.040;30.218;2023-12-07T01:06:09;102269.00;;;-2.40
82411;BMP180;74662;60.040;30.218;2023-12-07T01:07:12;102210.00;;;-2.40
82411;BMP180;74662;60.040;30.218;2023-12-07T01:08:13;102181.00;;;-2.40
82411;BMP180;74662;60.040;30.218;2023-12-07T01:09:13;102246.00;;;-2.40
82411;BMP180;74662;60.040;30.218;2023-12-07T01:10:14;102256.00;;;-2.40
82411;BMP180;74662;60.040;30.218;2023-12-07T01:11:14;102279.00;;;-2.40
82411;BMP180;74662;60.040;30.218;2023-12-07T01:12:15;102189.00;;;-2.40
82411;BMP180;74662;60.040;30.218;2023-12-07T01:13:15;102280.00;;;-2.40
82411;BMP180;74662;60.040;30.218;2023-12-07T01:14:16;102264.00;;;-2.40
82411;BMP180;74662;60.040;30.218;2023-12-07T01:15:17;102257.00;;;-2.40
82411;BMP180;74662;60.040;30.218;2023-12-07T01:16:17;102273.00;;;-2.50
82411;BMP180;74662;60.040;30.218;2023-12-07T01:17:18;102252.00;;;-2.50
82411;BMP180;74662;60.040;30.218;2023-12-07T01:18:18;102195.00;;;-2.40
82411;BMP180;74662;60.040;30.218;2023-12-07T01:19:19;102260.00;;;-2.50
82411;BMP180;74662;60.040;30.218;2023-12-07T01:20:19;102258.00;;;-2.50
82411;BMP180;74662;60.040;30.218;2023-12-07T01:21:20;102260.00;;;-2.50
82411;BMP180;74662;60.040;30.218;2023-12-07T01:22:20;102188.00;;;-2.50
82411;BMP180;74662;60.040;30.218;2023-12-07T01:23:21;102269.00;;;-2.50
82411;BMP180;74662;60.040;30.218;2023-12-07T01:24:22;102251.00;;;-2.50
82411;BMP180;74662;60.040;30.218;2023-12-07T01:25:22;102273.00;;;-2.50
82411;BMP180;74662;60.040;30.218;2023-12-07T01:26:24;102262.00;;;-2.50
82411;BMP180;74662;60.040;30.218;2023-12-07T01:27:25;102263.00;;;-2.50
82411;BMP180;74662;60.040;30.218;2023-12-07T01:28:25;102260.00;;;-2.50
82411;BMP180;74662;60.040;30.218;2023-12-07T01:29:26;102253.00;;;-2.50
82411;BMP180;74662;60.040;30.218;2023-12-07T01:30:26;102272.00;;;-2.50
82411;BMP180;74662;60.040;30.218;2023-12-07T01:31:27;102244.00;;;-2.50
82411;BMP180;74662;60.040;30.218;2023-12-07T01:32:27;102275.00;;;-2.50
82411;BMP180;74662;60.040;30.218;2023-12-07T01:33:28;102282.00;;;-2.50
82411;BMP180;74662;60.040;30.218;2023-12-07T01:34:28;102268.00;;;-2.50
82411;BMP180;74662;60.040;30.218;2023-12-07T01:35:29;102249.00;;;-2.50
82411;BMP180;74662;60.040;30.218;2023-12-07T01:36:30;102265.00;;;-2.50
82411;BMP180;74662;60.040;30.218;2023-12-07T01:37:30;102282.00;;;-2.50
82411;BMP180;74662;60.040;30.218;2023-12-07T01:38:31;102243.00;;;-2.50
82411;BMP180;74662;60.040;30.218;2023-12-07T01:39:31;102272.00;;;-2.50
82411;BMP180;74662;60.040;30.218;2023-12-07T01:40:33;102286.00;;;-2.60
82411;BMP180;74662;60.040;30.218;2023-12-07T01:41:34;102213.00;;;-2.50
82411;BMP180;74662;60.040;30.218;2023-12-07T01:42:35;102269.00;;;-2.50
82411;BMP180;74662;60.040;30.218;2023-12-07T01:43:35;102270.00;;;-2.50
82411;BMP180;74662;60.040;30.218;2023-12-07T01:44:36;102257.00;;;-2.50
82411;BMP180;74662;60.040;30.218;2023-12-07T01:45:37;102242.00;;;-2.60
82411;BMP180;74662;60.040;30.218;2023-12-07T01:46:37;102293.00;;;-2.60
82411;BMP180;74662;60.040;30.218;2023-12-07T01:47:38;102276.00;;;-2.60
82411;BMP180;74662;60.040;30.218;2023-12-07T01:48:38;102205.00;;;-2.60
82411;BMP180;74662;60.040;30.218;2023-12-07T01:49:39;102227.00;;;-2.60
82411;BMP180;74662;60.040;30.218;2023-12-07T01:50:40;102296.00;;;-2.60
82411;BMP180;74662;60.040;30.218;2023-12-07T01:51:41;102235.00;;;-2.60
82411;BMP180;74662;60.040;30.218;2023-12-07T01:52:47;102235.00;;;-2.60
82411;BMP180;74662;60.040;30.218;2023-12-07T01:53:49;102218.00;;;-2.60
82411;BMP180;74662;60.040;30.218;2023-12-07T01:54:50;102273.00;;;-2.60
82411;BMP180;74662;60.040;30.218;2023-12-07T01:55:51;102295.00;;;-2.60
82411;BMP180;74662;60.040;30.218;2023-12-07T01:56:52;102201.00;;;-2.60
82411;BMP180;74662;60.040;30.218;2023-12-07T01:57:53;102238.00;;;-2.60
82411;BMP180;74662;60.040;30.218;2023-12-07T01:58:54;102298.00;;;-2.60
82411;BMP180;74662;60.040;30.218;2023-12-07T01:59:54;102204.00;;;-2.70
82411;BMP180;74662;60.040;30.218;2023-12-07T02:00:55;102280.00;;;-2.70
82411;BMP180;74662;60.040;30.218;2023-12-07T02:01:56;102297.00;;;-2.60
82411;BMP180;74662;60.040;30.218;2023-12-07T02:02:56;102223.00;;;-2.70
82411;BMP180;74662;60.040;30.218;2023-12-07T02:03:57;102229.00;;;-2.70
82411;BMP180;74662;60.040;30.218;2023-12-07T02:04:57;102298.00;;;-2.70
82411;BMP180;74662;60.040;30.218;2023-12-07T02:05:58;102303.00;;;-2.70
82411;BMP180;74662;60.040;30.218;2023-12-07T02:07:00;102274.00;;;-2.70
82411;BMP180;74662;60.040;30.218;2023-12-07T02:08:02;102258.00;;;-2.60
82411;BMP180;74662;60.040;30.218;2023-12-07T02:09:02;102289.00;;;-2.70
82411;BMP180;74662;60.040;30.218;2023-12-07T02:10:04;102290.00;;;-2.70
82411;BMP180;74662;60.040;30.218;2023-12-07T02:11:04;102295.00;;;-2.70
82411;BMP180;74662;60.040;30.218;2023-12-07T02:12:05;102298.00;;;-2.70
82411;BMP180;74662;60.040;30.218;2023-12-07T02:13:06;102252.00;;;-2.70
82411;BMP180;74662;60.040;30.218;2023-12-07T02:14:07;102283.00;;;-2.70
82411;BMP180;74662;60.040;30.218;2023-12-07T02:15:08;102308.00;;;-2.70
82411;BMP180;74662;60.040;30.218;2023-12-07T02:16:16;102217.00;;;-2.70
82411;BMP180;74662;60.040;30.218;2023-12-07T02:17:23;102288.00;;;-2.70
82411;BMP180;74662;60.040;30.218;2023-12-07T02:18:44;102207.00;;;-2.70
82411;BMP180;74662;60.040;30.218;2023-12-07T02:19:56;102227.00;;;-2.70
82411;BMP180;74662;60.040;30.218;2023-12-07T02:22:12;102280.00;;;-2.70
82411;BMP180;74662;60.040;30.218;2023-12-07T02:23:17;102266.00;;;-2.70
82411;BMP180;74662;60.040;30.218;2023-12-07T02:24:21;102302.00;;;-2.70
82411;BMP180;74662;60.040;30.218;2023-12-07T02:25:36;102276.00;;;-2.80
82411;BMP180;74662;60.040;30.218;2023-12-07T02:26:40;102282.00;;;-2.70
82411;BMP180;74662;60.040;30.218;2023-12-07T02:27:42;102303.00;;;-2.80
82411;BMP180;74662;60.040;30.218;2023-12-07T02:28:43;102212.00;;;-2.80
82411;BMP180;74662;60.040;30.218;2023-12-07T02:29:43;102295.00;;;-2.80
82411;BMP180;74662;60.040;30.218;2023-12-07T02:30:44;102243.00;;;-2.70
82411;BMP180;74662;60.040;30.218;2023-12-07T02:31:45;102226.00;;;-2.80
82411;BMP180;74662;60.040;30.218;2023-12-07T02:32:46;102277.00;;;-2.80
82411;BMP180;74662;60.040;30.218;2023-12-07T02:33:47;102293.00;;;-2.80
82411;BMP180;74662;60.040;30.218;2023-12-07T02:34:47;102204.00;;;-2.80
82411;BMP180;74662;60.040;30.218;2023-12-07T02:35:48;102296.00;;;-2.80
82411;BMP180;74662;60.040;30.218;2023-12-07T02:36:51;102213.00;;;-2.80
82411;BMP180;74662;60.040;30.218;2023-12-07T02:37:54;102333.00;;;-2.80
82411;BMP180;74662;60.040;30.218;2023-12-07T02:38:59;102239.00;;;-2.80
82411;BMP180;74662;60.040;30.218;2023-12-07T02:40:02;102243.00;;;-2.80
82411;BMP180;74662;60.040;30.218;2023-12-07T02:41:05;102250.00;;;-2.80
82411;BMP180;74662;60.040;30.218;2023-12-07T02:42:07;102267.00;;;-2.80
82411;BMP180;74662;60.040;30.218;2023-12-07T02:43:08;102322.00;;;-2.80
82411;BMP180;74662;60.040;30.218;2023-12-07T02:44:09;102309.00;;;-2.80
82411;BMP180;74662;60.040;30.218;2023-12-07T02:45:11;102298.00;;;-2.80
82411;BMP180;74662;60.040;30.218;2023-12-07T02:46:12;102323.00;;;-2.80
82411;BMP180;74662;60.040;30.218;2023-12-07T02:47:14;102334.00;;;-2.80
82411;BMP180;74662;60.040;30.218;2023-12-07T02:48:14;102294.00;;;-2.80
82411;BMP180;74662;60.040;30.218;2023-12-07T02:49:17;102319.00;;;-2.90
82411;BMP180;74662;60.040;30.218;2023-12-07T02:50:18;102321.00;;;-2.90
82411;BMP180;74662;60.040;30.218;2023-12-07T02:51:18;102328.00;;;-2.90
82411;BMP180;74662;60.040;30.218;2023-12-07T02:52:19;102294.00;;;-2.90
82411;BMP180;74662;60.040;30.218;2023-12-07T02:53:20;102306.00;;;-2.90
82411;BMP180;74662;60.040;30.218;2023-12-07T02:54:20;102327.00;;;-2.90
82411;BMP180;74662;60.040;30.218;2023-12-07T02:55:21;102309.00;;;-2.90
82411;BMP180;74662;60.040;30.218;2023-12-07T02:56:21;102308.00;;;-2.90
82411;BMP180;74662;60.040;30.218;2023-12-07T02:57:22;102230.00;;;-2.90
82411;BMP180;74662;60.040;30.218;2023-12-07T02:58:22;102328.00;;;-2.90
82411;BMP180;74662;60.040;30.218;2023-12-07T02:59:23;102192.00;;;-2.90
82411;BMP180;74662;60.040;30.218;2023-12-07T03:00:23;102331.00;;;-2.90
82411;BMP180;74662;60.040;30.218;2023-12-07T03:01:24;102318.00;;;-2.90
82411;BMP180;74662;60.040;30.218;2023-12-07T03:02:24;102295.00;;;-2.90
82411;BMP180;74662;60.040;30.218;2023-12-07T03:03:25;102247.00;;;-2.90
82411;BMP180;74662;60.040;30.218;2023-12-07T03:04:25;102238.00;;;-2.90
82411;BMP180;74662;60.040;30.218;2023-12-07T03:05:26;102237.00;;;-2.90
82411;BMP180;74662;60.040;30.218;2023-12-07T03:06:26;102337.00;;;-2.90
82411;BMP180;74662;60.040;30.218;2023-12-07T03:07:27;102313.00;;;-2.90
82411;BMP180;74662;60.040;30.218;2023-12-07T03:08:27;102312.00;;;-2.90
82411;BMP180;74662;60.040;30.218;2023-12-07T03:09:28;102322.00;;;-2.90
82411;BMP180;74662;60.040;30.218;2023-12-07T03:10:29;102245.00;;;-2.90
82411;BMP180;74662;60.040;30.218;2023-12-07T03:11:29;102282.00;;;-2.90
82411;BMP180;74662;60.040;30.218;2023-12-07T03:12:30;102338.00;;;-2.90
82411;BMP180;74662;60.040;30.218;2023-12-07T03:13:30;102328.00;;;-2.90
82411;BMP180;74662;60.040;30.218;2023-12-07T03:14:31;102330.00;;;-2.90
82411;BMP180;74662;60.040;30.218;2023-12-07T03:15:31;102305.00;;;-2.90
82411;BMP180;74662;60.040;30.218;2023-12-07T03:16:32;102347.00;;;-2.90
82411;BMP180;74662;60.040;30.218;2023-12-07T03:17:32;102305.00;;;-2.90
82411;BMP180;74662;60.040;30.218;2023-12-07T03:18:33;102332.00;;;-2.90
82411;BMP180;74662;60.040;30.218;2023-12-07T03:19:37;102318.00;;;-3.00
82411;BMP180;74662;60.040;30.218;2023-12-07T03:20:38;102287.00;;;-3.00
82411;BMP180;74662;60.040;30.218;2023-12-07T03:21:42;102328.00;;;-3.00
82411;BMP180;74662;60.040;30.218;2023-12-07T03:22:43;102215.00;;;-3.00
82411;BMP180;74662;60.040;30.218;2023-12-07T03:23:43;102312.00;;;-3.00
82411;BMP180;74662;60.040;30.218;2023-12-07T03:24:47;102345.00;;;-3.00
82411;BMP180;74662;60.040;30.218;2023-12-07T03:25:48;102279.00;;;-2.90
82411;BMP180;74662;60.040;30.218;2023-12-07T03:26:48;102342.00;;;-3.00
82411;BMP180;74662;60.040;30.218;2023-12-07T03:27:49;102328.00;;;-3.00
82411;BMP180;74662;60.040;30.218;2023-12-07T03:28:49;102322.00;;;-3.00
82411;BMP180;74662;60.040;30.218;2023-12-07T03:29:50;102351.00;;;-3.00
82411;BMP180;74662;60.040;30.218;2023-12-07T03:30:51;102318.00;;;-3.00
82411;BMP180;74662;60.040;30.218;2023-12-07T03:31:52;102222.00;;;-3.00
82411;BMP180;74662;60.040;30.218;2023-12-07T03:32:52;102345.00;;;-3.00
82411;BMP180;74662;60.040;30.218;2023-12-07T03:33:54;102277.00;;;-3.00
82411;BMP180;74662;60.040;30.218;2023-12-07T03:34:54;102181.00;;;-3.00
82411;BMP180;74662;60.040;30.218;2023-12-07T03:35:55;102331.00;;;-3.00
82411;BMP180;74662;60.040;30.218;2023-12-07T03:36:56;102317.00;;;-3.00
82411;BMP180;74662;60.040;30.218;2023-12-07T03:37:56;102342.00;;;-3.00
82411;BMP180;74662;60.040;30.218;2023-12-07T03:38:57;102189.00;;;-3.10
82411;BMP180;74662;60.040;30.218;2023-12-07T03:39:57;102351.00;;;-3.00
82411;BMP180;74662;60.040;30.218;2023-12-07T03:40:58;102358.00;;;-3.00
82411;BMP180;74662;60.040;30.218;2023-12-07T03:41:58;102343.00;;;-3.00
82411;BMP180;74662;60.040;30.218;2023-12-07T03:42:59;102280.00;;;-3.00
82411;BMP180;74662;60.040;30.218;2023-12-07T03:43:59;102335.00;;;-3.00
82411;BMP180;74662;60.040;30.218;2023-12-07T03:45:00;102354.00;;;-3.10
82411;BMP180;74662;60.040;30.218;2023-12-07T03:46:04;102339.00;;;-3.00
82411;BMP180;74662;60.040;30.218;2023-12-07T03:47:05;102356.00;;;-3.10
82411;BMP180;74662;60.040;30.218;2023-12-07T03:48:05;102274.00;;;-3.10
82411;BMP180;74662;60.040;30.218;2023-12-07T03:49:06;102364.00;;;-3.10
82411;BMP180;74662;60.040;30.218;2023-12-07T03:50:07;102341.00;;;-3.10
82411;BMP180;74662;60.040;30.218;2023-12-07T03:51:07;102340.00;;;-3.10
82411;BMP180;74662;60.040;30.218;2023-12-07T03:52:08;102273.00;;;-3.10
82411;BMP180;74662;60.040;30.218;2023-12-07T03:53:08;102357.00;;;-3.10
82411;BMP180;74662;60.040;30.218;2023-12-07T03:54:10;102302.00;;;-3.10
82411;BMP180;74662;60.040;30.218;2023-12-07T03:55:10;102288.00;;;-3.10
82411;BMP180;74662;60.040;30.218;2023-12-07T03:56:11;102358.00;;;-3.10
82411;BMP180;74662;60.040;30.218;2023-12-07T03:57:22;102361.00;;;-3.10
82411;BMP180;74662;60.040;30.218;2023-12-07T03:58:22;102284.00;;;-3.10
82411;BMP180;74662;60.040;30.218;2023-12-07T03:59:23;102292.00;;;-3.10
82411;BMP180;74662;60.040;30.218;2023-12-07T04:00:23;102281.00;;;-3.10
82411;BMP180;74662;60.040;30.218;2023-12-07T04:01:25;102368.00;;;-3.10
82411;BMP180;74662;60.040;30.218;2023-12-07T04:02:25;102360.00;;;-3.10
82411;BMP180;74662;60.040;30.218;2023-12-07T04:03:26;102314.00;;;-3.20
82411;BMP180;74662;60.040;30.218;2023-12-07T04:04:26;102300.00;;;-3.10
82411;BMP180;74662;60.040;30.218;2023-12-07T04:05:27;102374.00;;;-3.20
82411;BMP180;74662;60.040;30.218;2023-12-07T04:06:27;102376.00;;;-3.20
82411;BMP180;74662;60.040;30.218;2023-12-07T04:07:29;102354.00;;;-3.10
82411;BMP180;74662;60.040;30.218;2023-12-07T04:08:32;102286.00;;;-3.20
82411;BMP180;74662;60.040;30.218;2023-12-07T04:09:33;102364.00;;;-3.20
82411;BMP180;74662;60.040;30.218;2023-12-07T04:10:33;102275.00;;;-3.20
82411;BMP180;74662;60.040;30.218;2023-12-07T04:11:34;102364.00;;;-3.20
82411;BMP180;74662;60.040;30.218;2023-12-07T04:12:35;102355.00;;;-3.20
82411;BMP180;74662;60.040;30.218;2023-12-07T04:13:36;102195.00;;;-3.20
82411;BMP180;74662;60.040;30.218;2023-12-07T04:14:36;102367.00;;;-3.20
82411;BMP180;74662;60.040;30.218;2023-12-07T04:15:37;102367.00;;;-3.20
82411;BMP180;74662;60.040;30.218;2023-12-07T04:16:37;102326.00;;;-3.20
82411;BMP180;74662;60.040;30.218;2023-12-07T04:17:38;102360.00;;;-3.20
82411;BMP180;74662;60.040;30.218;2023-12-07T04:18:38;102364.00;;;-3.20
82411;BMP180;74662;60.040;30.218;2023-12-07T04:19:39;102332.00;;;-3.20
82411;BMP180;74662;60.040;30.218;2023-12-07T04:20:40;102352.00;;;-3.20
82411;BMP180;74662;60.040;30.218;2023-12-07T04:21:40;102280.00;;;-3.20
82411;BMP180;74662;60.040;30.218;2023-12-07T04:22:41;102361.00;;;-3.20
82411;BMP180;74662;60.040;30.218;2023-12-07T04:23:41;102373.00;;;-3.30
82411;BMP180;74662;60.040;30.218;2023-12-07T04:24:42;102370.00;;;-3.30
82411;BMP180;74662;60.040;30.218;2023-12-07T04:25:42;102364.00;;;-3.30
82411;BMP180;74662;60.040;30.218;2023-12-07T04:26:43;102374.00;;;-3.30
82411;BMP180;74662;60.040;30.218;2023-12-07T04:27:44;102370.00;;;-3.30
82411;BMP180;74662;60.040;30.218;2023-12-07T04:28:44;102376.00;;;-3.30
82411;BMP180;74662;60.040;30.218;2023-12-07T04:29:45;102306.00;;;-3.30
82411;BMP180;74662;60.040;30.218;2023-12-07T04:30:45;102368.00;;;-3.30
82411;BMP180;74662;60.040;30.218;2023-12-07T04:31:46;102289.00;;;-3.30
82411;BMP180;74662;60.040;30.218;2023-12-07T04:32:46;102357.00;;;-3.30
82411;BMP180;74662;60.040;30.218;2023-12-07T04:33:47;102378.00;;;-3.30
82411;BMP180;74662;60.040;30.218;2023-12-07T04:34:47;102358.00;;;-3.30
82411;BMP180;74662;60.040;30.218;2023-12-07T04:35:48;102374.00;;;-3.30
82411;BMP180;74662;60.040;30.218;2023-12-07T04:36:49;102383.00;;;-3.30
82411;BMP180;74662;60.040;30.218;2023-12-07T04:37:50;102352.00;;;-3.30
82411;BMP180;74662;60.040;30.218;2023-12-07T04:38:50;102370.00;;;-3.30
82411;BMP180;74662;60.040;30.218;2023-12-07T04:39:51;102307.00;;;-3.30
82411;BMP180;74662;60.040;30.218;2023-12-07T04:40:51;102370.00;;;-3.40
82411;BMP180;74662;60.040;30.218;2023-12-07T04:41:52;102392.00;;;-3.30
82411;BMP180;74662;60.040;30.218;2023-12-07T04:42:52;102370.00;;;-3.40
82411;BMP180;74662;60.040;30.218;2023-12-07T04:43:53;102311.00;;;-3.40
82411;BMP180;74662;60.040;30.218;2023-12-07T04:44:53;102364.00;;;-3.30
82411;BMP180;74662;60.040;30.218;2023-12-07T04:45:54;102356.00;;;-3.40
82411;BMP180;74662;60.040;30.218;2023-12-07T04:46:54;102399.00;;;-3.30
82411;BMP180;74662;60.040;30.218;2023-12-07T04:47:55;102293.00;;;-3.40
82411;BMP180;74662;60.040;30.218;2023-12-07T04:48:57;102392.00;;;-3.40
82411;BMP180;74662;60.040;30.218;2023-12-07T04:49:57;102388.00;;;-3.40
82411;BMP180;74662;60.040;30.218;2023-12-07T04:50:58;102365.00;;;-3.40
82411;BMP180;74662;60.040;30.218;2023-12-07T04:51:59;102370.00;;;-3.40
82411;BMP180;74662;60.040;30.218;2023-12-07T04:52:59;102306.00;;;-3.40
82411;BMP180;74662;60.040;30.218;2023-12-07T04:54:00;102303.00;;;-3.40
82411;BMP180;74662;60.040;30.218;2023-12-07T04:55:01;102388.00;;;-3.40
82411;BMP180;74662;60.040;30.218;2023-12-07T04:56:01;102291.00;;;-3.40
82411;BMP180;74662;60.040;30.218;2023-12-07T04:57:02;102315.00;;;-3.40
82411;BMP180;74662;60.040;30.218;2023-12-07T04:58:02;102309.00;;;-3.40
82411;BMP180;74662;60.040;30.218;2023-12-07T04:59:03;102335.00;;;-3.40
82411;BMP180;74662;60.040;30.218;2023-12-07T05:00:04;102385.00;;;-3.40
82411;BMP180;74662;60.040;30.218;2023-12-07T05:01:09;102363.00;;;-3.40
82411;BMP180;74662;60.040;30.218;2023-12-07T05:02:10;102363.00;;;-3.40
82411;BMP180;74662;60.040;30.218;2023-12-07T05:03:11;102388.00;;;-3.40
82411;BMP180;74662;60.040;30.218;2023-12-07T05:04:12;102329.00;;;-3.40
82411;BMP180;74662;60.040;30.218;2023-12-07T05:05:12;102378.00;;;-3.50
82411;BMP180;74662;60.040;30.218;2023-12-07T05:06:14;102383.00;;;-3.50
82411;BMP180;74662;60.040;30.218;2023-12-07T05:07:15;102306.00;;;-3.50
82411;BMP180;74662;60.040;30.218;2023-12-07T05:08:16;102383.00;;;-3.50
82411;BMP180;74662;60.040;30.218;2023-12-07T05:09:16;102309.00;;;-3.50
82411;BMP180;74662;60.040;30.218;2023-12-07T05:10:17;102391.00;;;-3.50
82411;BMP180;74662;60.040;30.218;2023-12-07T05:11:17;102374.00;;;-3.50
82411;BMP180;74662;60.040;30.218;2023-12-07T05:12:18;102396.00;;;-3.50
82411;BMP180;74662;60.040;30.218;2023-12-07T05:13:18;102397.00;;;-3.50
82411;BMP180;74662;60.040;30.218;2023-12-07T05:14:19;102384.00;;;-3.50
82411;BMP180;74662;60.040;30.218;2023-12-07T05:15:19;102396.00;;;-3.50
82411;BMP180;74662;60.040;30.218;2023-12-07T05:16:20;102383.00;;;-3.50
82411;BMP180;74662;60.040;30.218;2023-12-07T05:17:20;102321.00;;;-3.50
82411;BMP180;74662;60.040;30.218;2023-12-07T05:18:21;102378.00;;;-3.50
82411;BMP180;74662;60.040;30.218;2023-12-07T05:19:23;102384.00;;;-3.50
82411;BMP180;74662;60.040;30.218;2023-12-07T05:20:23;102385.00;;;-3.50
82411;BMP180;74662;60.040;30.218;2023-12-07T05:21:26;102405.00;;;-3.60
82411;BMP180;74662;60.040;30.218;2023-12-07T05:22:26;102378.00;;;-3.60
82411;BMP180;74662;60.040;30.218;2023-12-07T05:23:27;102403.00;;;-3.60
82411;BMP180;74662;60.040;30.218;2023-12-07T05:24:28;102413.00;;;-3.60
82411;BMP180;74662;60.040;30.218;2023-12-07T05:25:28;102354.00;;;-3.60
82411;BMP180;74662;60.040;30.218;2023-12-07T05:26:29;102276.00;;;-3.60
82411;BMP180;74662;60.040;30.218;2023-12-07T05:27:33;102383.00;;;-3.50
82411;BMP180;74662;60.040;30.218;2023-12-07T05:28:33;102337.00;;;-3.60
82411;BMP180;74662;60.040;30.218;2023-12-07T05:29:34;102367.00;;;-3.60
82411;BMP180;74662;60.040;30.218;2023-12-07T05:30:35;102318.00;;;-3.60
82411;BMP180;74662;60.040;30.218;2023-12-07T05:31:36;102336.00;;;-3.60
82411;BMP180;74662;60.040;30.218;2023-12-07T05:32:37;102389.00;;;-3.60
82411;BMP180;74662;60.040;30.218;2023-12-07T05:33:38;102386.00;;;-3.60
82411;BMP180;74662;60.040;30.218;2023-12-07T05:34:38;102398.00;;;-3.60
82411;BMP180;74662;60.040;30.218;2023-12-07T05:35:39;102396.00;;;-3.60
82411;BMP180;74662;60.040;30.218;2023-12-07T05:36:39;102389.00;;;-3.60
82411;BMP180;74662;60.040;30.218;2023-12-07T05:37:40;102321.00;;;-3.60
82411;BMP180;74662;60.040;30.218;2023-12-07T05:38:41;102349.00;;;-3.60
82411;BMP180;74662;60.040;30.218;2023-12-07T05:39:41;102376.00;;;-3.60
82411;BMP180;74662;60.040;30.218;2023-12-07T05:40:42;102398.00;;;-3.60
82411;BMP180;74662;60.040;30.218;2023-12-07T05:41:42;102401.00;;;-3.60
82411;BMP180;74662;60.040;30.218;2023-12-07T05:42:43;102406.00;;;-3.60